Time;durP1;ratioP1;P1;durP2;ratioP2;P2;SDS_P1;SDS_P2;PMS_P1;PMS_P2;Temp;Humidity;BMP_temperature;BMP_pressure;BME280_temperature;BME280_humidity;BME280_pressure;Samples;Min_cycle;Max_cycle;Signal;HPM_P1;HPM_P2
2023/08/31 00:00:09;;;;;;;16.65;9.10;;;;;;;;;;4999102;28;20053;-68
2023/08/31 00:02:41;;;;;;;14.50;8.93;;;;;;;;;;4982979;28;20506;-67
2023/08/31 00:05:08;;;;;;;18.20;8.90;;;;;;;;;;5014862;28;20037;-67
2023/08/31 00:07:34;;;;;;;13.07;9.18;;;;;;;;;;4998705;28;20134;-67
2023/08/31 00:10:08;;;;;;;17.00;9.05;;;;;;;;;;5018961;28;20495;-69
2023/08/31 00:12:36;;;;;;;16.77;8.95;;;;;;;;;;5019623;28;20152;-68
2023/08/31 00:15:04;;;;;;;14.48;8.50;;;;;;;;;;4999221;28;20072;-68
2023/08/31 00:17:31;;;;;;;16.08;8.27;;;;;;;;;;5015341;28;20056;-67
2023/08/31 00:19:56;;;;;;;14.75;8.48;;;;;;;;;;4982906;28;20037;-67
2023/08/31 00:22:22;;;;;;;11.88;8.27;;;;;;;;;;5014750;28;20050;-70
2023/08/31 00:24:48;;;;;;;16.13;8.82;;;;;;;;;;5032347;28;20036;-67
2023/08/31 00:27:15;;;;;;;20.15;8.68;;;;;;;;;;5032260;28;20049;-67
2023/08/31 00:29:45;;;;;;;13.65;8.77;;;;;;;;;;5015925;28;20120;-68
2023/08/31 00:32:13;;;;;;;15.60;8.88;;;;;;;;;;4994966;28;20048;-72
2023/08/31 00:34:39;;;;;;;18.50;9.02;;;;;;;;;;4979082;28;20123;-69
2023/08/31 00:37:06;;;;;;;13.50;8.43;;;;;;;;;;4991774;28;20056;-69
2023/08/31 00:39:36;;;;;;;14.20;8.63;;;;;;;;;;4998079;28;20091;-68
2023/08/31 00:42:02;;;;;;;17.20;8.88;;;;;;;;;;4997909;28;20072;-70
2023/08/31 00:44:29;;;;;;;14.25;8.50;;;;;;;;;;5017434;28;20109;-68
2023/08/31 00:46:56;;;;;;;13.23;8.55;;;;;;;;;;4984821;28;20165;-70
2023/08/31 00:49:23;;;;;;;17.67;8.50;;;;;;;;;;4998467;28;20502;-69
2023/08/31 00:51:50;;;;;;;15.15;8.63;;;;;;;;;;5014732;28;20500;-69
2023/08/31 00:54:17;;;;;;;14.10;8.73;;;;;;;;;;4982511;28;20045;-69
2023/08/31 00:56:43;;;;;;;18.02;8.60;;;;;;;;;;4981699;28;20108;-68
2023/08/31 00:59:09;;;;;;;15.57;8.77;;;;;;;;;;4981399;28;20435;-68
2023/08/31 01:01:43;;;;;;;15.93;8.52;;;;;;;;;;4997789;28;20384;-69
2023/08/31 01:04:09;;;;;;;16.80;9.40;;;;;;;;;;5017428;28;20052;-68
2023/08/31 01:06:38;;;;;;;15.20;8.93;;;;;;;;;;5027476;28;20048;-69
2023/08/31 01:09:23;;;;;;;20.02;9.40;;;;;;;;;;5037026;28;20041;-68
2023/08/31 01:11:49;;;;;;;15.82;8.52;;;;;;;;;;5037243;28;20472;-69
2023/08/31 01:14:23;;;;;;;23.20;9.32;;;;;;;;;;5074212;28;20044;-68
2023/08/31 01:16:49;;;;;;;13.25;8.38;;;;;;;;;;5057573;28;20460;-69
2023/08/31 01:19:29;;;;;;;14.32;8.65;;;;;;;;;;5047593;28;20119;-69
2023/08/31 01:21:58;;;;;;;17.23;9.18;;;;;;;;;;5021128;28;20051;-68
2023/08/31 01:24:24;;;;;;;13.70;9.02;;;;;;;;;;5020739;28;20067;-68
2023/08/31 01:26:52;;;;;;;17.05;9.32;;;;;;;;;;5021248;28;20102;-68
2023/08/31 01:29:19;;;;;;;16.27;8.98;;;;;;;;;;5020830;28;20122;-68
2023/08/31 01:31:48;;;;;;;18.33;9.35;;;;;;;;;;5037003;28;20048;-68
2023/08/31 01:34:15;;;;;;;14.77;9.23;;;;;;;;;;5020349;28;20052;-69
2023/08/31 01:36:47;;;;;;;20.80;8.95;;;;;;;;;;5020352;28;20500;-70
2023/08/31 01:39:15;;;;;;;16.63;9.65;;;;;;;;;;5036848;28;20586;-69
2023/08/31 01:41:43;;;;;;;14.90;9.50;;;;;;;;;;5020312;28;20040;-68
2023/08/31 01:44:16;;;;;;;18.75;9.15;;;;;;;;;;5069883;28;20140;-69
2023/08/31 01:46:46;;;;;;;13.88;9.35;;;;;;;;;;5020372;28;20155;-69
2023/08/31 01:49:14;;;;;;;16.63;9.38;;;;;;;;;;5036696;28;20124;-70
2023/08/31 01:51:42;;;;;;;16.98;9.45;;;;;;;;;;5040127;28;20488;-71
2023/08/31 01:54:10;;;;;;;17.35;9.65;;;;;;;;;;4998118;28;20025;-69
2023/08/31 01:56:36;;;;;;;15.50;8.68;;;;;;;;;;5014785;28;20388;-69
2023/08/31 01:59:07;;;;;;;17.17;9.60;;;;;;;;;;5015066;28;20038;-68
2023/08/31 02:01:34;;;;;;;16.83;9.55;;;;;;;;;;5032047;28;20179;-68
2023/08/31 02:04:01;;;;;;;21.05;9.85;;;;;;;;;;4999632;28;20045;-69
2023/08/31 02:06:28;;;;;;;18.60;9.60;;;;;;;;;;5014174;28;20053;-69
2023/08/31 02:08:55;;;;;;;19.35;9.30;;;;;;;;;;4997629;28;20037;-69
2023/08/31 02:11:21;;;;;;;21.10;9.77;;;;;;;;;;4997584;28;20156;-69
2023/08/31 02:13:47;;;;;;;20.27;10.18;;;;;;;;;;4980719;28;20132;-70
2023/08/31 02:16:13;;;;;;;17.40;10.38;;;;;;;;;;4980826;28;20049;-68
2023/08/31 02:18:40;;;;;;;18.15;9.85;;;;;;;;;;4980876;28;20044;-70
2023/08/31 02:21:07;;;;;;;16.15;9.50;;;;;;;;;;4981188;28;20053;-69
2023/08/31 02:23:33;;;;;;;22.05;10.25;;;;;;;;;;4997913;28;20041;-68
2023/08/31 02:26:01;;;;;;;16.98;9.43;;;;;;;;;;4980916;28;20112;-69
2023/08/31 02:28:27;;;;;;;17.00;10.93;;;;;;;;;;5032742;28;20487;-71
2023/08/31 02:30:59;;;;;;;19.92;11.85;;;;;;;;;;4993413;28;20053;-69
2023/08/31 02:33:26;;;;;;;24.67;13.70;;;;;;;;;;4958912;28;20043;-69
2023/08/31 02:35:55;;;;;;;26.17;16.42;;;;;;;;;;4975506;28;20502;-69
2023/08/31 02:38:22;;;;;;;25.95;15.57;;;;;;;;;;4960613;28;20472;-70
2023/08/31 02:40:51;;;;;;;27.42;13.95;;;;;;;;;;4961781;28;20073;-70
2023/08/31 02:43:18;;;;;;;27.52;12.30;;;;;;;;;;4961542;28;20042;-69
2023/08/31 02:45:44;;;;;;;19.02;10.35;;;;;;;;;;4961058;28;20050;-69
2023/08/31 02:48:15;;;;;;;22.52;11.48;;;;;;;;;;4962322;28;20049;-69
2023/08/31 02:50:44;;;;;;;19.65;10.50;;;;;;;;;;4962726;28;20057;-70
2023/08/31 02:53:09;;;;;;;23.15;10.35;;;;;;;;;;4978406;28;20405;-69
2023/08/31 02:55:35;;;;;;;23.58;10.07;;;;;;;;;;4961193;28;20492;-69
2023/08/31 02:58:04;;;;;;;20.92;9.75;;;;;;;;;;4961341;28;20050;-71
2023/08/31 03:00:33;;;;;;;18.67;9.80;;;;;;;;;;4956518;28;20047;-70
2023/08/31 03:03:00;;;;;;;15.23;8.88;;;;;;;;;;4935641;29;20598;-69
2023/08/31 03:05:28;;;;;;;24.10;10.32;;;;;;;;;;4921557;29;20207;-69
2023/08/31 03:07:57;;;;;;;17.60;9.15;;;;;;;;;;5009106;28;20087;-66
2023/08/31 03:10:23;;;;;;;20.20;9.55;;;;;;;;;;5001489;28;20060;-66
2023/08/31 03:12:49;;;;;;;18.88;8.88;;;;;;;;;;5000148;28;20029;-65
2023/08/31 03:15:15;;;;;;;16.25;8.52;;;;;;;;;;5015952;28;20204;-66
2023/08/31 03:17:43;;;;;;;19.35;9.77;;;;;;;;;;4999816;28;20041;-66
2023/08/31 03:20:10;;;;;;;21.45;9.18;;;;;;;;;;4976894;28;20469;-65
2023/08/31 03:22:37;;;;;;;16.85;8.77;;;;;;;;;;4993209;28;20432;-66
2023/08/31 03:25:03;;;;;;;20.25;9.20;;;;;;;;;;4993144;28;20057;-66
2023/08/31 03:27:29;;;;;;;20.65;10.10;;;;;;;;;;4993236;28;20054;-71
2023/08/31 03:29:55;;;;;;;16.85;9.50;;;;;;;;;;4960967;28;20042;-66
2023/08/31 03:32:21;;;;;;;21.02;9.43;;;;;;;;;;4993079;28;20038;-66
2023/08/31 03:34:48;;;;;;;18.05;9.20;;;;;;;;;;4960555;28;20078;-66
2023/08/31 03:37:13;;;;;;;16.33;9.23;;;;;;;;;;4960629;28;20041;-66
2023/08/31 03:39:41;;;;;;;13.70;8.40;;;;;;;;;;4981023;28;20050;-66
2023/08/31 03:42:07;;;;;;;12.55;8.20;;;;;;;;;;4995020;28;20053;-67
2023/08/31 03:44:33;;;;;;;18.77;8.88;;;;;;;;;;4995736;28;20062;-66
2023/08/31 03:46:58;;;;;;;17.85;9.02;;;;;;;;;;4979971;28;20059;-66
2023/08/31 03:49:24;;;;;;;16.38;8.98;;;;;;;;;;4996042;28;20144;-66
2023/08/31 03:51:50;;;;;;;12.38;8.88;;;;;;;;;;5026903;28;20131;-66
2023/08/31 03:54:17;;;;;;;17.67;8.82;;;;;;;;;;5051597;28;20128;-66
2023/08/31 03:56:43;;;;;;;19.95;8.73;;;;;;;;;;5018249;28;20132;-66
2023/08/31 03:59:12;;;;;;;18.98;8.93;;;;;;;;;;5032515;28;20117;-66
2023/08/31 04:01:37;;;;;;;17.45;8.48;;;;;;;;;;5015681;28;20032;-66
2023/08/31 04:04:05;;;;;;;17.17;8.48;;;;;;;;;;5031519;28;20077;-66
2023/08/31 04:06:31;;;;;;;15.13;8.48;;;;;;;;;;5015048;28;20045;-66
2023/08/31 04:08:56;;;;;;;17.85;8.35;;;;;;;;;;5030925;28;20396;-66
2023/08/31 04:11:22;;;;;;;15.07;8.63;;;;;;;;;;5031842;28;20158;-66
2023/08/31 04:13:49;;;;;;;18.85;8.98;;;;;;;;;;5031407;28;20521;-66
2023/08/31 04:16:15;;;;;;;15.25;8.57;;;;;;;;;;5033637;28;20033;-66
2023/08/31 04:18:42;;;;;;;15.20;8.75;;;;;;;;;;5018420;28;20048;-66
2023/08/31 04:21:08;;;;;;;16.25;7.88;;;;;;;;;;5033789;28;20048;-67
2023/08/31 04:23:34;;;;;;;17.92;8.68;;;;;;;;;;5032363;28;20042;-66
2023/08/31 04:26:00;;;;;;;12.77;7.43;;;;;;;;;;5016218;28;20042;-66
2023/08/31 04:28:25;;;;;;;20.77;9.30;;;;;;;;;;5031998;28;20055;-66
2023/08/31 04:30:51;;;;;;;13.85;7.88;;;;;;;;;;5015532;28;20076;-67
2023/08/31 04:33:18;;;;;;;16.05;8.68;;;;;;;;;;5031915;28;20048;-66
2023/08/31 04:35:44;;;;;;;19.20;8.57;;;;;;;;;;5032360;28;20065;-66
2023/08/31 04:38:10;;;;;;;17.40;8.05;;;;;;;;;;5033910;28;20039;-66
2023/08/31 04:40:36;;;;;;;19.08;7.85;;;;;;;;;;5036042;28;20064;-66
2023/08/31 04:43:03;;;;;;;12.30;7.53;;;;;;;;;;5034867;28;20045;-66
2023/08/31 04:45:28;;;;;;;19.33;6.65;;;;;;;;;;5033157;28;20057;-66
2023/08/31 04:47:54;;;;;;;17.77;7.72;;;;;;;;;;5031926;28;20033;-66
2023/08/31 04:50:19;;;;;;;15.73;7.30;;;;;;;;;;5031653;28;20036;-66
2023/08/31 04:52:45;;;;;;;16.63;7.18;;;;;;;;;;5032266;28;20033;-67
2023/08/31 04:55:12;;;;;;;21.38;7.55;;;;;;;;;;5032437;28;20041;-66
2023/08/31 04:57:38;;;;;;;15.27;7.63;;;;;;;;;;5015121;28;20041;-67
2023/08/31 05:00:08;;;;;;;12.65;6.70;;;;;;;;;;5032640;28;20037;-66
2023/08/31 05:02:34;;;;;;;17.27;6.43;;;;;;;;;;4998585;28;20073;-67
2023/08/31 05:05:00;;;;;;;13.75;7.00;;;;;;;;;;5031380;28;20091;-67
2023/08/31 05:07:25;;;;;;;10.90;6.32;;;;;;;;;;5031989;28;20078;-67
2023/08/31 05:09:53;;;;;;;11.07;6.70;;;;;;;;;;4998323;28;20037;-67
2023/08/31 05:12:20;;;;;;;13.07;6.25;;;;;;;;;;5014216;28;20052;-67
2023/08/31 05:14:46;;;;;;;11.20;6.20;;;;;;;;;;5031472;28;20038;-67
2023/08/31 05:17:12;;;;;;;13.35;6.03;;;;;;;;;;5032178;28;20041;-67
2023/08/31 05:19:38;;;;;;;10.20;6.25;;;;;;;;;;5031296;28;20033;-67
2023/08/31 05:22:05;;;;;;;13.45;6.50;;;;;;;;;;5031128;28;20037;-67
2023/08/31 05:24:31;;;;;;;9.60;6.32;;;;;;;;;;5032378;28;20038;-66
2023/08/31 05:26:59;;;;;;;10.13;6.38;;;;;;;;;;5014780;28;20151;-67
2023/08/31 05:29:26;;;;;;;11.52;5.78;;;;;;;;;;5014352;28;20120;-67
2023/08/31 05:31:52;;;;;;;15.70;6.35;;;;;;;;;;5047503;28;20064;-66
2023/08/31 05:34:20;;;;;;;12.05;6.25;;;;;;;;;;5030839;28;20034;-66
2023/08/31 05:36:45;;;;;;;11.27;6.35;;;;;;;;;;5030921;28;20046;-66
2023/08/31 05:39:11;;;;;;;10.15;6.28;;;;;;;;;;5031875;28;20037;-66
2023/08/31 05:41:39;;;;;;;10.52;6.15;;;;;;;;;;5032104;28;20056;-66
2023/08/31 05:44:05;;;;;;;11.68;5.95;;;;;;;;;;5031241;28;20148;-66
2023/08/31 05:46:31;;;;;;;8.80;5.63;;;;;;;;;;5031923;28;20579;-66
2023/08/31 05:48:56;;;;;;;12.65;5.78;;;;;;;;;;5031901;28;20037;-66
2023/08/31 05:51:23;;;;;;;18.65;6.10;;;;;;;;;;5014852;28;20042;-67
2023/08/31 05:53:49;;;;;;;17.90;5.80;;;;;;;;;;5014652;28;20041;-67
2023/08/31 05:56:15;;;;;;;10.27;5.53;;;;;;;;;;5030851;28;20038;-66
2023/08/31 05:58:40;;;;;;;13.00;6.00;;;;;;;;;;5031035;28;20033;-69
2023/08/31 06:01:10;;;;;;;11.35;6.10;;;;;;;;;;5013935;28;20151;-67
2023/08/31 06:03:39;;;;;;;12.27;5.95;;;;;;;;;;4997897;28;20041;-70
2023/08/31 06:06:05;;;;;;;11.00;5.75;;;;;;;;;;4961548;28;20050;-67
2023/08/31 06:08:30;;;;;;;15.93;6.72;;;;;;;;;;4970239;28;20137;-67
2023/08/31 06:10:59;;;;;;;11.40;5.53;;;;;;;;;;5010465;28;20115;-66
2023/08/31 06:13:26;;;;;;;12.85;6.28;;;;;;;;;;4978066;28;20129;-67
2023/08/31 06:15:51;;;;;;;13.43;6.03;;;;;;;;;;4994509;28;20217;-66
2023/08/31 06:18:17;;;;;;;19.27;6.20;;;;;;;;;;5010428;28;20045;-67
2023/08/31 06:20:48;;;;;;;10.85;5.97;;;;;;;;;;4978664;28;20082;-67
2023/08/31 06:23:13;;;;;;;22.33;6.68;;;;;;;;;;4962585;28;20457;-66
2023/08/31 06:25:45;;;;;;;14.07;6.35;;;;;;;;;;4994991;28;20042;-68
2023/08/31 06:28:16;;;;;;;18.23;6.03;;;;;;;;;;4969829;28;20043;-66
2023/08/31 06:30:48;;;;;;;16.00;6.00;;;;;;;;;;4993872;28;20054;-66
2023/08/31 06:33:17;;;;;;;12.65;6.10;;;;;;;;;;4956963;28;20118;-67
2023/08/31 06:35:55;;;;;;;11.85;6.13;;;;;;;;;;4937947;29;20205;-67
2023/08/31 06:38:20;;;;;;;14.20;6.15;;;;;;;;;;4958503;28;20181;-69
2023/08/31 06:40:49;;;;;;;8.82;5.57;;;;;;;;;;4955164;28;20145;-68
2023/08/31 06:43:15;;;;;;;25.55;6.50;;;;;;;;;;4943703;28;20060;-67
2023/08/31 06:45:43;;;;;;;9.73;5.28;;;;;;;;;;4974880;28;20055;-68
2023/08/31 06:48:12;;;;;;;17.70;5.80;;;;;;;;;;4953998;28;20605;-67
2023/08/31 06:50:41;;;;;;;11.05;5.68;;;;;;;;;;4940786;28;20066;-68
2023/08/31 06:53:08;;;;;;;14.00;5.88;;;;;;;;;;4952909;28;20095;-67
2023/08/31 06:55:33;;;;;;;10.52;5.07;;;;;;;;;;4957306;28;20074;-68
2023/08/31 06:57:59;;;;;;;13.02;6.10;;;;;;;;;;4956259;28;20031;-68
2023/08/31 07:00:26;;;;;;;13.15;5.53;;;;;;;;;;4993028;28;20042;-66
2023/08/31 07:02:57;;;;;;;12.18;5.88;;;;;;;;;;5018007;28;20110;-68
2023/08/31 07:05:48;;;;;;;11.68;5.60;;;;;;;;;;5026554;28;20076;-68
2023/08/31 07:08:14;;;;;;;12.40;5.63;;;;;;;;;;5061725;28;20477;-66
2023/08/31 07:10:42;;;;;;;8.63;5.38;;;;;;;;;;5040009;28;20040;-68
2023/08/31 07:13:08;;;;;;;15.45;5.28;;;;;;;;;;5044522;28;20117;-70
2023/08/31 07:15:36;;;;;;;8.05;5.53;;;;;;;;;;5058560;28;20036;-67
2023/08/31 07:18:05;;;;;;;16.45;5.72;;;;;;;;;;5042735;28;20043;-68
2023/08/31 07:20:32;;;;;;;16.83;5.50;;;;;;;;;;5075674;28;20036;-67
2023/08/31 07:22:59;;;;;;;14.27;5.43;;;;;;;;;;5092449;28;20047;-68
2023/08/31 07:25:28;;;;;;;17.98;5.38;;;;;;;;;;5083529;28;20047;-72
2023/08/31 07:27:58;;;;;;;10.60;4.97;;;;;;;;;;5054656;28;20407;-68
2023/08/31 07:30:24;;;;;;;10.40;4.85;;;;;;;;;;5030522;28;20441;-67
2023/08/31 07:32:55;;;;;;;13.70;6.30;;;;;;;;;;5006637;28;20042;-68
2023/08/31 07:35:26;;;;;;;12.82;5.22;;;;;;;;;;5014435;28;20049;-67
2023/08/31 07:37:52;;;;;;;10.38;4.63;;;;;;;;;;4988092;28;20038;-68
2023/08/31 07:40:20;;;;;;;12.98;4.53;;;;;;;;;;4971079;28;20399;-67
2023/08/31 07:42:47;;;;;;;10.23;4.80;;;;;;;;;;4977372;28;20471;-69
2023/08/31 07:45:13;;;;;;;5.88;3.95;;;;;;;;;;4976643;28;20046;-69
2023/08/31 07:47:40;;;;;;;10.73;4.03;;;;;;;;;;5004019;28;20408;-69
2023/08/31 07:50:09;;;;;;;11.90;4.05;;;;;;;;;;4978310;28;20512;-70
2023/08/31 07:52:37;;;;;;;11.93;3.75;;;;;;;;;;5003441;28;20048;-69
2023/08/31 07:55:04;;;;;;;10.30;3.88;;;;;;;;;;4994464;28;20066;-69
2023/08/31 07:57:29;;;;;;;11.63;3.78;;;;;;;;;;4983982;28;20034;-69
2023/08/31 07:59:55;;;;;;;11.80;3.83;;;;;;;;;;4986930;28;20049;-69
2023/08/31 08:02:22;;;;;;;17.65;4.03;;;;;;;;;;4995413;28;20427;-68
2023/08/31 08:04:48;;;;;;;12.30;4.10;;;;;;;;;;5039189;28;20056;-69
2023/08/31 08:07:16;;;;;;;14.38;4.65;;;;;;;;;;5041301;28;20045;-70
2023/08/31 08:09:43;;;;;;;15.00;4.20;;;;;;;;;;5041946;28;20040;-70
2023/08/31 08:12:10;;;;;;;11.68;4.18;;;;;;;;;;5044808;28;20037;-70
2023/08/31 08:14:36;;;;;;;11.80;4.20;;;;;;;;;;5017125;28;20437;-71
2023/08/31 08:17:01;;;;;;;11.60;4.65;;;;;;;;;;5051958;28;20036;-70
2023/08/31 08:19:27;;;;;;;8.73;4.30;;;;;;;;;;5050937;28;20049;-70
2023/08/31 08:21:52;;;;;;;13.38;3.95;;;;;;;;;;5033039;28;20029;-69
2023/08/31 08:24:19;;;;;;;14.60;4.10;;;;;;;;;;5049521;28;20048;-70
2023/08/31 08:26:45;;;;;;;8.75;3.70;;;;;;;;;;5049620;28;20044;-71
2023/08/31 08:29:12;;;;;;;7.40;3.50;;;;;;;;;;5049035;28;20463;-69
2023/08/31 08:31:42;;;;;;;15.52;4.20;;;;;;;;;;5032884;28;20423;-70
2023/08/31 08:34:08;;;;;;;9.13;3.70;;;;;;;;;;5049547;28;20143;-70
2023/08/31 08:36:33;;;;;;;8.20;3.70;;;;;;;;;;5050232;28;20211;-70
2023/08/31 08:39:00;;;;;;;9.55;3.50;;;;;;;;;;5049299;28;20804;-70
2023/08/31 08:41:27;;;;;;;6.88;3.40;;;;;;;;;;5029315;28;20063;-71
2023/08/31 08:43:53;;;;;;;9.15;3.47;;;;;;;;;;5023345;28;20029;-69
2023/08/31 08:46:19;;;;;;;12.65;3.70;;;;;;;;;;5023825;28;20156;-71
2023/08/31 08:48:49;;;;;;;10.85;3.53;;;;;;;;;;5040617;28;20037;-70
2023/08/31 08:51:18;;;;;;;11.13;3.67;;;;;;;;;;5026052;28;20426;-70
2023/08/31 08:53:47;;;;;;;13.73;3.72;;;;;;;;;;5025057;28;20029;-70
2023/08/31 08:56:14;;;;;;;7.82;3.30;;;;;;;;;;5025870;28;20033;-69
2023/08/31 08:58:40;;;;;;;12.93;3.50;;;;;;;;;;5025473;28;20037;-69
2023/08/31 09:01:07;;;;;;;12.27;3.25;;;;;;;;;;5016961;28;20116;-71
2023/08/31 09:03:32;;;;;;;9.95;3.03;;;;;;;;;;5040179;28;20037;-73
2023/08/31 09:06:01;;;;;;;6.03;3.40;;;;;;;;;;5040653;28;20064;-70
2023/08/31 09:08:29;;;;;;;8.10;3.60;;;;;;;;;;5030516;28;20552;-69
2023/08/31 09:11:01;;;;;;;7.15;3.08;;;;;;;;;;5050124;28;20149;-69
2023/08/31 09:13:30;;;;;;;5.28;3.03;;;;;;;;;;5017401;28;20467;-70
2023/08/31 09:15:58;;;;;;;9.98;3.15;;;;;;;;;;5033546;28;20091;-70
2023/08/31 09:18:24;;;;;;;8.65;3.00;;;;;;;;;;5051937;28;20608;-70
2023/08/31 09:20:51;;;;;;;10.90;3.10;;;;;;;;;;5069785;28;20463;-70
2023/08/31 09:23:18;;;;;;;10.50;3.00;;;;;;;;;;5069585;28;20040;-70
2023/08/31 09:25:49;;;;;;;12.48;2.90;;;;;;;;;;5068443;28;20040;-70
2023/08/31 09:28:16;;;;;;;12.55;2.80;;;;;;;;;;5061658;28;20387;-71
2023/08/31 09:30:43;;;;;;;12.55;3.17;;;;;;;;;;5047114;28;20042;-71
2023/08/31 09:33:10;;;;;;;12.68;3.22;;;;;;;;;;5043681;28;20052;-70
2023/08/31 09:35:40;;;;;;;8.25;3.10;;;;;;;;;;5042056;28;20377;-70
2023/08/31 09:38:09;;;;;;;12.65;3.20;;;;;;;;;;5016741;28;20574;-70
2023/08/31 09:40:38;;;;;;;8.25;3.03;;;;;;;;;;5032044;28;20053;-70
2023/08/31 09:43:04;;;;;;;9.43;3.00;;;;;;;;;;5033176;28;20035;-70
2023/08/31 09:45:32;;;;;;;8.45;2.75;;;;;;;;;;5049495;28;20295;-70
2023/08/31 09:47:59;;;;;;;8.23;3.10;;;;;;;;;;5049959;28;20076;-70
2023/08/31 09:50:30;;;;;;;8.10;3.08;;;;;;;;;;5014601;28;20551;-70
2023/08/31 09:53:00;;;;;;;11.10;2.90;;;;;;;;;;5046728;28;20057;-70
2023/08/31 09:55:29;;;;;;;7.20;3.00;;;;;;;;;;5030913;28;20037;-71
2023/08/31 09:57:56;;;;;;;7.20;2.75;;;;;;;;;;5029483;28;20503;-70
2023/08/31 10:00:27;;;;;;;7.05;3.28;;;;;;;;;;4997066;28;20477;-70
2023/08/31 10:02:56;;;;;;;8.48;2.95;;;;;;;;;;4996825;28;20438;-70
2023/08/31 10:05:24;;;;;;;4.95;3.13;;;;;;;;;;5013188;28;20059;-71
2023/08/31 10:07:50;;;;;;;12.80;2.92;;;;;;;;;;5013478;28;20072;-70
2023/08/31 10:10:16;;;;;;;11.77;3.75;;;;;;;;;;5029876;28;20464;-70
2023/08/31 10:12:45;;;;;;;9.10;3.22;;;;;;;;;;5013174;28;20049;-70
2023/08/31 10:15:12;;;;;;;11.23;3.40;;;;;;;;;;5013597;28;20145;-70
2023/08/31 10:17:39;;;;;;;6.70;3.38;;;;;;;;;;4996635;28;20061;-70
2023/08/31 10:20:08;;;;;;;9.63;2.88;;;;;;;;;;5011956;28;20033;-70
2023/08/31 10:22:34;;;;;;;12.05;3.33;;;;;;;;;;5031186;28;20165;-72
2023/08/31 10:25:05;;;;;;;12.10;3.17;;;;;;;;;;5030451;28;20156;-70
2023/08/31 10:27:45;;;;;;;6.40;2.95;;;;;;;;;;5009074;28;20496;-70
2023/08/31 10:30:15;;;;;;;8.25;3.13;;;;;;;;;;5029926;28;20088;-70
2023/08/31 10:32:42;;;;;;;12.20;3.35;;;;;;;;;;5013326;28;20062;-70
2023/08/31 10:35:09;;;;;;;9.90;3.50;;;;;;;;;;4980779;28;20043;-70
2023/08/31 10:37:34;;;;;;;8.05;2.80;;;;;;;;;;5013814;28;20060;-70
2023/08/31 10:40:11;;;;;;;6.97;2.85;;;;;;;;;;5014454;28;20041;-71
2023/08/31 10:42:47;;;;;;;6.03;3.10;;;;;;;;;;5013915;28;20576;-70
2023/08/31 10:45:13;;;;;;;11.45;3.28;;;;;;;;;;5013123;28;20091;-70
2023/08/31 10:47:42;;;;;;;8.95;3.00;;;;;;;;;;4996847;28;20457;-71
2023/08/31 10:50:15;;;;;;;6.40;3.15;;;;;;;;;;5013462;28;20472;-71
2023/08/31 10:52:45;;;;;;;9.10;3.20;;;;;;;;;;5032955;28;20045;-71
2023/08/31 10:55:12;;;;;;;12.80;3.17;;;;;;;;;;5007625;28;20041;-72
2023/08/31 10:57:40;;;;;;;13.88;3.67;;;;;;;;;;5016385;28;20555;-69
2023/08/31 11:00:06;;;;;;;13.77;3.78;;;;;;;;;;4986848;28;20169;-70
2023/08/31 11:02:38;;;;;;;10.82;3.90;;;;;;;;;;4993451;28;20034;-69
2023/08/31 11:05:16;;;;;;;7.10;3.70;;;;;;;;;;4980946;28;20144;-67
2023/08/31 11:07:43;;;;;;;7.15;3.65;;;;;;;;;;5012959;28;20128;-69
2023/08/31 11:10:29;;;;;;;7.63;3.47;;;;;;;;;;5009445;28;20096;-71
2023/08/31 11:12:57;;;;;;;7.75;3.70;;;;;;;;;;4998254;28;20037;-69
2023/08/31 11:15:23;;;;;;;12.68;4.00;;;;;;;;;;4984469;28;20046;-69
2023/08/31 11:17:51;;;;;;;11.93;3.40;;;;;;;;;;4992133;28;20129;-70
2023/08/31 11:20:18;;;;;;;8.20;3.63;;;;;;;;;;4996490;28;20140;-69
2023/08/31 11:22:45;;;;;;;18.95;4.43;;;;;;;;;;4980032;28;20037;-70
2023/08/31 11:25:11;;;;;;;11.02;4.50;;;;;;;;;;4981734;28;20042;-70
2023/08/31 11:27:37;;;;;;;8.63;3.70;;;;;;;;;;4999439;28;20053;-69
2023/08/31 11:30:24;;;;;;;6.72;3.63;;;;;;;;;;5032344;28;20210;-69
2023/08/31 11:32:51;;;;;;;5.50;3.35;;;;;;;;;;5015224;28;20030;-69
2023/08/31 11:35:17;;;;;;;9.32;4.03;;;;;;;;;;5032231;28;20041;-69
2023/08/31 11:37:44;;;;;;;10.32;3.85;;;;;;;;;;4999000;28;20088;-69
2023/08/31 11:40:11;;;;;;;10.48;3.55;;;;;;;;;;5016011;28;20049;-69
2023/08/31 11:42:37;;;;;;;8.88;3.50;;;;;;;;;;5000926;28;20111;-68
2023/08/31 11:45:05;;;;;;;6.78;3.42;;;;;;;;;;4996289;28;20449;-70
2023/08/31 11:47:32;;;;;;;14.65;3.60;;;;;;;;;;4996289;28;20148;-68
2023/08/31 11:49:59;;;;;;;11.20;3.90;;;;;;;;;;5025773;28;20130;-69
2023/08/31 11:52:27;;;;;;;9.77;4.18;;;;;;;;;;5006130;28;20029;-69
2023/08/31 11:54:54;;;;;;;8.75;3.83;;;;;;;;;;5005948;28;20144;-68
2023/08/31 11:57:25;;;;;;;10.00;3.90;;;;;;;;;;5015062;28;20050;-68
2023/08/31 11:59:52;;;;;;;7.78;4.18;;;;;;;;;;5012251;28;20053;-69
2023/08/31 12:02:20;;;;;;;6.93;4.25;;;;;;;;;;4994603;28;20038;-69
2023/08/31 12:04:48;;;;;;;7.68;4.18;;;;;;;;;;4998009;28;20060;-69
2023/08/31 12:07:16;;;;;;;12.90;4.25;;;;;;;;;;5012444;28;20041;-69
2023/08/31 12:09:44;;;;;;;18.05;4.50;;;;;;;;;;5014605;28;20279;-68
2023/08/31 12:12:11;;;;;;;9.40;3.95;;;;;;;;;;4959076;28;20057;-68
2023/08/31 12:14:38;;;;;;;10.65;4.20;;;;;;;;;;5007624;28;20054;-68
2023/08/31 12:17:08;;;;;;;12.38;4.00;;;;;;;;;;5010204;28;20161;-67
2023/08/31 12:19:39;;;;;;;11.63;3.95;;;;;;;;;;5011311;28;20049;-68
2023/08/31 12:22:07;;;;;;;11.38;4.13;;;;;;;;;;4978970;28;20050;-67
2023/08/31 12:24:40;;;;;;;8.52;4.15;;;;;;;;;;4978976;28;20125;-67
2023/08/31 12:27:07;;;;;;;7.25;4.30;;;;;;;;;;4995293;28;20062;-68
2023/08/31 12:29:34;;;;;;;16.45;4.35;;;;;;;;;;4994863;28;20040;-68
2023/08/31 12:31:59;;;;;;;7.50;3.78;;;;;;;;;;4971934;28;20050;-68
2023/08/31 12:34:27;;;;;;;13.55;4.03;;;;;;;;;;4956323;28;20085;-68
2023/08/31 12:36:52;;;;;;;13.85;4.35;;;;;;;;;;4940378;28;20149;-68
2023/08/31 12:39:18;;;;;;;7.45;3.60;;;;;;;;;;4972368;28;20030;-68
2023/08/31 12:41:44;;;;;;;9.43;4.00;;;;;;;;;;4972041;28;20095;-68
2023/08/31 12:44:10;;;;;;;13.63;4.28;;;;;;;;;;4993160;28;20053;-66
2023/08/31 12:46:36;;;;;;;10.35;4.20;;;;;;;;;;4995022;28;20111;-67
2023/08/31 12:49:03;;;;;;;13.00;4.38;;;;;;;;;;4978254;28;20042;-67
2023/08/31 12:51:30;;;;;;;8.93;4.28;;;;;;;;;;4978566;28;20464;-67
2023/08/31 12:53:57;;;;;;;10.75;4.25;;;;;;;;;;4994824;28;20620;-68
2023/08/31 12:56:25;;;;;;;10.23;4.50;;;;;;;;;;4986366;28;20087;-68
2023/08/31 12:58:56;;;;;;;12.80;4.43;;;;;;;;;;5004260;28;20041;-70
2023/08/31 13:01:26;;;;;;;11.20;4.38;;;;;;;;;;5005599;28;20041;-67
2023/08/31 13:03:52;;;;;;;11.90;4.22;;;;;;;;;;4993601;28;20045;-68
2023/08/31 13:06:18;;;;;;;13.43;4.35;;;;;;;;;;5002847;28;20046;-68
2023/08/31 13:08:44;;;;;;;9.80;4.38;;;;;;;;;;4978963;28;20094;-67
2023/08/31 13:11:11;;;;;;;11.13;4.50;;;;;;;;;;4979907;28;20127;-67
2023/08/31 13:13:36;;;;;;;10.98;4.63;;;;;;;;;;4963679;28;20050;-67
2023/08/31 13:16:03;;;;;;;10.63;4.43;;;;;;;;;;4981415;28;20527;-67
2023/08/31 13:18:30;;;;;;;13.95;4.60;;;;;;;;;;4975747;28;20121;-67
2023/08/31 13:20:55;;;;;;;8.85;4.38;;;;;;;;;;4936664;29;20059;-67
2023/08/31 13:23:24;;;;;;;15.73;4.68;;;;;;;;;;4914118;29;20114;-67
2023/08/31 13:25:50;;;;;;;9.23;4.38;;;;;;;;;;4882618;29;20040;-68
2023/08/31 13:28:17;;;;;;;13.48;4.47;;;;;;;;;;4914090;29;20525;-67
2023/08/31 13:30:44;;;;;;;11.50;4.50;;;;;;;;;;4897992;29;20052;-68
2023/08/31 13:33:10;;;;;;;9.55;4.53;;;;;;;;;;4898198;29;20055;-67
2023/08/31 13:35:36;;;;;;;18.85;5.22;;;;;;;;;;4897886;29;20036;-67
2023/08/31 13:38:02;;;;;;;10.38;4.43;;;;;;;;;;4913799;29;20051;-67
2023/08/31 13:40:30;;;;;;;12.38;4.47;;;;;;;;;;4945300;29;20083;-68
2023/08/31 13:43:01;;;;;;;9.73;4.78;;;;;;;;;;4945379;28;20056;-67
2023/08/31 13:45:30;;;;;;;10.57;4.80;;;;;;;;;;4897811;29;20487;-67
2023/08/31 13:48:04;;;;;;;11.77;5.15;;;;;;;;;;4882938;29;20139;-67
2023/08/31 13:50:30;;;;;;;9.55;4.90;;;;;;;;;;4986914;28;20124;-67
2023/08/31 13:52:55;;;;;;;13.25;5.00;;;;;;;;;;4974525;28;20054;-67
2023/08/31 13:55:23;;;;;;;19.23;5.82;;;;;;;;;;4942709;28;20040;-67
2023/08/31 13:57:49;;;;;;;10.88;5.00;;;;;;;;;;4974339;28;20139;-67
2023/08/31 14:00:14;;;;;;;8.15;4.53;;;;;;;;;;4974265;28;20485;-67
2023/08/31 14:02:43;;;;;;;23.48;5.78;;;;;;;;;;4942000;28;20069;-67
2023/08/31 14:05:10;;;;;;;14.93;5.20;;;;;;;;;;4974213;28;20348;-67
2023/08/31 14:07:36;;;;;;;11.93;4.80;;;;;;;;;;4996085;28;20037;-66
2023/08/31 14:10:07;;;;;;;8.48;4.40;;;;;;;;;;5050614;28;20048;-68
2023/08/31 14:12:34;;;;;;;17.77;5.30;;;;;;;;;;5002029;28;20032;-67
2023/08/31 14:15:03;;;;;;;14.63;4.90;;;;;;;;;;5034506;28;20036;-67
2023/08/31 14:17:31;;;;;;;10.52;5.05;;;;;;;;;;5059701;28;20082;-71
2023/08/31 14:20:00;;;;;;;12.50;5.75;;;;;;;;;;5047531;28;20534;-67
2023/08/31 14:22:28;;;;;;;14.18;6.43;;;;;;;;;;5020631;28;20052;-66
2023/08/31 14:24:53;;;;;;;15.13;5.97;;;;;;;;;;5032889;28;20079;-66
2023/08/31 14:27:20;;;;;;;13.00;5.05;;;;;;;;;;5036945;28;20048;-67
2023/08/31 14:29:51;;;;;;;11.43;5.47;;;;;;;;;;5020870;28;21071;-66
2023/08/31 14:32:19;;;;;;;15.15;5.30;;;;;;;;;;5037035;28;20032;-67